Time;durP1;ratioP1;P1;durP2;ratioP2;P2;SDS_P1;SDS_P2;PMS_P1;PMS_P2;Temp;Humidity;BMP_temperature;BMP_pressure;BME280_temperature;BME280_humidity;BME280_pressure;Samples;Min_cycle;Max_cycle;Signal;HPM_P1;HPM_P2
2024/01/25 00:00:34;;;;;;;11.87;4.30;;;10.60;99.90;;;;;;5054832;28;20499;-80
2024/01/25 00:03:02;;;;;;;15.30;5.53;;;10.60;99.90;;;;;;5049966;28;20455;-83
2024/01/25 00:05:32;;;;;;;16.70;4.70;;;10.60;99.90;;;;;;5047885;28;20830;-82
2024/01/25 00:08:00;;;;;;;8.67;4.83;;;10.60;99.90;;;;;;5042233;28;20454;-80
2024/01/25 00:10:28;;;;;;;11.40;5.27;;;10.60;99.90;;;;;;5044197;28;20483;-78
2024/01/25 00:12:58;;;;;;;12.53;5.33;;;10.60;99.90;;;;;;5059034;28;20464;-77
2024/01/25 00:15:26;;;;;;;15.20;4.83;;;10.60;99.90;;;;;;5054262;28;20958;-79
2024/01/25 00:17:56;;;;;;;15.50;5.27;;;10.60;99.90;;;;;;5047149;28;20467;-78
2024/01/25 00:20:25;;;;;;;6.57;4.40;;;10.60;99.90;;;;;;5048349;28;20581;-79
2024/01/25 00:22:53;;;;;;;11.83;5.10;;;10.60;99.90;;;;;;5044438;28;20506;-78
2024/01/25 00:25:21;;;;;;;7.13;4.30;;;10.60;99.90;;;;;;5049220;28;20444;-80
2024/01/25 00:27:50;;;;;;;9.93;4.30;;;10.60;99.90;;;;;;5054119;28;20463;-78
2024/01/25 00:30:20;;;;;;;9.83;4.60;;;10.60;99.90;;;;;;5055572;28;20483;-81
2024/01/25 00:32:49;;;;;;;9.67;4.70;;;10.60;99.90;;;;;;5056220;28;20459;-79
2024/01/25 00:35:19;;;;;;;10.83;4.73;;;10.60;99.90;;;;;;5063357;28;20463;-78
2024/01/25 00:37:48;;;;;;;9.23;5.10;;;10.60;99.90;;;;;;5058397;28;20482;-79
2024/01/25 00:40:18;;;;;;;7.63;4.33;;;10.70;99.90;;;;;;5053834;28;20467;-81
2024/01/25 00:42:52;;;;;;;9.23;4.37;;;10.60;99.90;;;;;;5054833;28;20545;-78
2024/01/25 00:45:23;;;;;;;8.00;4.80;;;10.70;99.90;;;;;;5055908;28;20824;-80
2024/01/25 00:47:52;;;;;;;12.00;4.77;;;10.60;99.90;;;;;;5047137;28;20451;-80
2024/01/25 00:50:23;;;;;;;12.40;5.20;;;10.70;99.90;;;;;;5050603;28;20483;-80
2024/01/25 00:52:53;;;;;;;9.30;4.57;;;10.70;99.90;;;;;;5055220;28;20469;-81
2024/01/25 00:55:22;;;;;;;8.87;5.40;;;10.70;99.90;;;;;;5053328;28;20452;-82
2024/01/25 00:57:52;;;;;;;12.37;4.97;;;10.70;99.90;;;;;;5047201;28;20462;-78
2024/01/25 01:00:23;;;;;;;7.90;4.13;;;10.70;99.90;;;;;;5048045;28;20466;-84
2024/01/25 01:02:54;;;;;;;10.57;5.10;;;10.70;99.90;;;;;;5056641;28;20459;-77
2024/01/25 01:05:23;;;;;;;10.00;5.57;;;10.70;99.90;;;;;;5053288;28;20991;-82
2024/01/25 01:07:52;;;;;;;10.60;4.73;;;10.70;99.90;;;;;;5050050;28;21970;-77
2024/01/25 01:10:20;;;;;;;11.27;5.23;;;10.70;99.90;;;;;;5053807;28;20478;-78
2024/01/25 01:12:49;;;;;;;5.37;3.90;;;10.70;1.00;;;;;;5050300;28;20551;-79
2024/01/25 01:15:17;;;;;;;19.47;4.90;;;10.60;1.00;;;;;;5055522;28;20538;-78
2024/01/25 01:17:47;;;;;;;9.73;4.73;;;10.60;1.00;;;;;;5056908;28;20439;-79
2024/01/25 01:20:16;;;;;;;6.47;4.27;;;10.60;1.00;;;;;;5054657;28;20475;-77
2024/01/25 01:22:44;;;;;;;12.80;4.77;;;10.60;1.00;;;;;;5055599;28;20456;-81
2024/01/25 01:25:13;;;;;;;5.90;4.50;;;10.60;1.00;;;;;;5056233;28;20471;-79
2024/01/25 01:27:41;;;;;;;10.67;4.37;;;10.60;1.00;;;;;;5058460;28;20540;-80
2024/01/25 01:30:10;;;;;;;5.27;4.80;;;10.60;1.00;;;;;;5052264;28;20463;-77
2024/01/25 01:32:39;;;;;;;15.10;5.73;;;10.50;1.00;;;;;;5051804;28;20474;-82
2024/01/25 01:35:09;;;;;;;10.20;5.37;;;10.50;1.00;;;;;;5056723;28;20459;-79
2024/01/25 01:37:37;;;;;;;9.67;5.33;;;10.60;1.00;;;;;;5049475;28;20456;-79
2024/01/25 01:40:07;;;;;;;16.07;5.30;;;10.50;1.00;;;;;;5059025;28;20599;-81
2024/01/25 01:42:35;;;;;;;8.23;4.90;;;10.50;1.00;;;;;;5053862;28;20479;-84
2024/01/25 01:45:04;;;;;;;8.83;4.70;;;10.60;1.00;;;;;;5049095;28;20582;-81
2024/01/25 01:47:32;;;;;;;6.00;4.43;;;10.50;1.00;;;;;;5050845;28;20957;-81
2024/01/25 01:50:01;;;;;;;10.00;4.53;;;10.60;1.00;;;;;;5051903;28;21323;-83
2024/01/25 01:52:32;;;;;;;13.73;4.90;;;10.60;1.00;;;;;;5051340;28;20473;-83
2024/01/25 01:55:00;;;;;;;8.20;4.70;;;10.60;1.00;;;;;;5054743;28;20877;-83
2024/01/25 01:57:29;;;;;;;10.93;4.60;;;10.60;1.00;;;;;;5046749;28;21092;-83
2024/01/25 02:00:00;;;;;;;9.90;5.27;;;10.60;1.00;;;;;;5058694;28;20502;-83
2024/01/25 02:02:28;;;;;;;10.70;4.20;;;10.60;1.00;;;;;;5052639;28;20441;-85
2024/01/25 02:04:56;;;;;;;9.10;4.50;;;10.60;1.00;;;;;;5048822;28;20467;-82
2024/01/25 02:07:24;;;;;;;10.10;5.10;;;10.60;1.00;;;;;;5049279;28;20569;-82
2024/01/25 02:09:54;;;;;;;7.50;4.30;;;10.60;1.00;;;;;;5045063;28;20471;-81
2024/01/25 02:12:23;;;;;;;12.33;4.20;;;10.60;1.00;;;;;;5055193;28;20476;-83
2024/01/25 02:14:51;;;;;;;10.07;5.23;;;10.60;1.00;;;;;;5056611;28;20448;-81
2024/01/25 02:17:19;;;;;;;10.90;5.47;;;10.60;1.00;;;;;;5046391;28;20464;-81
2024/01/25 02:19:47;;;;;;;12.43;5.97;;;10.60;1.00;;;;;;5047372;28;20600;-84
2024/01/25 02:22:18;;;;;;;11.33;4.83;;;10.60;1.00;;;;;;5056860;28;20807;-82
2024/01/25 02:24:47;;;;;;;12.07;5.03;;;10.60;1.00;;;;;;5052244;28;21185;-84
2024/01/25 02:27:16;;;;;;;9.83;4.80;;;10.60;1.00;;;;;;5052344;28;21001;-84
2024/01/25 02:29:51;;;;;;;10.38;5.60;;;10.60;1.00;;;;;;5078225;27;1261965;-81
2024/01/25 02:32:19;;;;;;;12.63;4.90;;;10.60;1.00;;;;;;5104804;28;20204;-82
2024/01/25 02:34:48;;;;;;;10.47;5.03;;;10.60;1.00;;;;;;5086422;28;20495;-79
2024/01/25 02:37:16;;;;;;;8.80;4.90;;;10.60;1.00;;;;;;5102292;28;21010;-80
2024/01/25 02:39:46;;;;;;;7.23;4.47;;;10.50;1.00;;;;;;5105349;28;20469;-81
2024/01/25 02:42:16;;;;;;;14.27;4.93;;;10.60;1.00;;;;;;5104401;28;20454;-80
2024/01/25 02:44:44;;;;;;;13.80;4.90;;;10.60;1.00;;;;;;5101465;28;20528;-83
2024/01/25 02:47:15;;;;;;;10.10;4.70;;;10.50;1.00;;;;;;5101923;28;21042;-83
2024/01/25 02:49:43;;;;;;;8.30;4.70;;;10.50;1.00;;;;;;5098054;28;20489;-80
2024/01/25 02:52:12;;;;;;;7.50;4.73;;;10.40;1.00;;;;;;5096962;28;20481;-80
2024/01/25 02:54:40;;;;;;;9.10;5.17;;;10.40;1.00;;;;;;5094996;28;20460;-82
2024/01/25 02:57:08;;;;;;;7.00;4.20;;;10.50;1.00;;;;;;5098713;28;20492;-79
2024/01/25 02:59:36;;;;;;;11.43;5.93;;;10.40;1.00;;;;;;5097508;28;20462;-83
2024/01/25 03:02:04;;;;;;;7.80;4.77;;;10.40;1.00;;;;;;5098627;28;21017;-81
2024/01/25 03:04:34;;;;;;;10.50;6.10;;;10.40;1.00;;;;;;5102353;28;20458;-80
2024/01/25 03:07:02;;;;;;;10.47;4.40;;;10.40;1.00;;;;;;5095652;28;20870;-81
2024/01/25 03:09:31;;;;;;;6.80;4.40;;;10.40;1.00;;;;;;5098005;28;20493;-82
2024/01/25 03:11:59;;;;;;;9.90;4.83;;;10.30;1.00;;;;;;5096878;28;20519;-81
2024/01/25 03:14:27;;;;;;;8.83;4.73;;;10.40;1.00;;;;;;5094116;28;20461;-79
2024/01/25 03:16:55;;;;;;;12.60;4.77;;;10.30;1.00;;;;;;5094151;28;20442;-79
2024/01/25 03:19:26;;;;;;;9.43;5.47;;;10.30;1.00;;;;;;5099054;28;20465;-80
2024/01/25 03:21:56;;;;;;;9.77;4.77;;;10.40;1.00;;;;;;5099372;28;20453;-80
2024/01/25 03:24:25;;;;;;;9.97;5.20;;;10.30;1.00;;;;;;5097955;28;20481;-79
2024/01/25 03:26:53;;;;;;;13.60;4.37;;;10.30;1.00;;;;;;5092544;28;20457;-80
2024/01/25 03:29:21;;;;;;;8.40;5.40;;;10.30;1.00;;;;;;5095967;28;21182;-80
2024/01/25 03:31:49;;;;;;;8.77;5.20;;;10.30;1.00;;;;;;5102378;28;20523;-82
2024/01/25 03:34:18;;;;;;;10.23;5.20;;;10.30;1.00;;;;;;5096214;28;20499;-84
2024/01/25 03:36:46;;;;;;;13.93;5.83;;;10.30;1.00;;;;;;5095603;28;21229;-80
2024/01/25 03:39:17;;;;;;;10.10;4.97;;;10.30;1.00;;;;;;5093961;28;20502;-80
2024/01/25 03:41:45;;;;;;;7.43;4.00;;;10.30;1.00;;;;;;5085331;28;20471;-81
2024/01/25 03:44:13;;;;;;;7.27;4.53;;;10.30;1.00;;;;;;5081394;28;20453;-82
2024/01/25 03:46:40;;;;;;;9.90;5.30;;;10.30;1.00;;;;;;5078602;28;20529;-78
2024/01/25 03:49:08;;;;;;;10.90;5.30;;;10.30;1.00;;;;;;5077862;28;20490;-80
2024/01/25 03:51:37;;;;;;;11.17;4.77;;;10.30;1.00;;;;;;5082295;28;20511;-85
2024/01/25 03:54:05;;;;;;;6.93;4.13;;;10.30;1.00;;;;;;5081214;28;20469;-80
2024/01/25 03:56:35;;;;;;;5.93;4.17;;;10.30;1.00;;;;;;5083317;28;20947;-84
2024/01/25 03:59:03;;;;;;;11.70;4.60;;;10.30;1.00;;;;;;5088773;28;20462;-81
2024/01/25 04:01:31;;;;;;;8.60;5.07;;;10.30;1.00;;;;;;5085528;28;20449;-81
2024/01/25 04:03:59;;;;;;;7.03;4.60;;;10.30;1.00;;;;;;5085811;28;20546;-81
2024/01/25 04:06:28;;;;;;;7.40;4.57;;;10.30;1.00;;;;;;5064924;28;20950;-79
2024/01/25 04:08:56;;;;;;;6.80;4.53;;;10.20;1.00;;;;;;5081617;28;20482;-79
2024/01/25 04:11:24;;;;;;;8.53;4.30;;;10.20;1.00;;;;;;5079941;28;20455;-82
2024/01/25 04:13:58;;;;;;;10.10;4.23;;;10.20;1.00;;;;;;5079202;28;20458;-79
2024/01/25 04:16:27;;;;;;;6.70;4.83;;;10.20;1.00;;;;;;5080717;28;20446;-81
2024/01/25 04:18:55;;;;;;;10.60;5.00;;;10.20;1.00;;;;;;5080987;28;20481;-79
2024/01/25 04:21:24;;;;;;;4.47;3.97;;;10.20;1.00;;;;;;5061461;28;20463;-80
2024/01/25 04:23:52;;;;;;;6.23;4.07;;;10.20;1.00;;;;;;5085781;28;20458;-78
2024/01/25 04:26:21;;;;;;;6.73;4.00;;;10.20;1.00;;;;;;5082597;28;20892;-78
2024/01/25 04:28:49;;;;;;;6.27;4.20;;;10.20;1.00;;;;;;5081522;28;20486;-85
2024/01/25 04:31:19;;;;;;;7.60;4.67;;;10.20;1.00;;;;;;5083877;28;20454;-79
2024/01/25 04:33:47;;;;;;;7.90;4.27;;;10.20;1.00;;;;;;5086958;28;20940;-82
2024/01/25 04:36:16;;;;;;;11.07;4.63;;;10.20;1.00;;;;;;5087854;28;20940;-81
2024/01/25 04:38:44;;;;;;;8.20;4.40;;;10.20;1.00;;;;;;5085614;28;20469;-80
2024/01/25 04:41:13;;;;;;;5.00;4.50;;;10.20;1.00;;;;;;5087908;28;21084;-79
2024/01/25 04:43:41;;;;;;;9.53;4.80;;;10.20;1.00;;;;;;5080562;28;20461;-79
2024/01/25 04:46:10;;;;;;;9.90;4.97;;;10.20;1.00;;;;;;5080051;28;20481;-81
2024/01/25 04:48:40;;;;;;;4.87;4.47;;;10.20;1.00;;;;;;5078205;28;20446;-81
2024/01/25 04:51:08;;;;;;;7.63;5.10;;;10.20;1.00;;;;;;5085477;28;20462;-78
2024/01/25 04:53:37;;;;;;;13.00;5.07;;;10.20;1.00;;;;;;5085423;28;20442;-79
2024/01/25 04:56:05;;;;;;;9.85;5.03;;;10.20;1.00;;;;;;5080965;28;20459;-81
2024/01/25 04:58:33;;;;;;;12.70;4.30;;;10.20;99.90;;;;;;5076286;28;20458;-80
2024/01/25 05:01:02;;;;;;;12.17;5.53;;;10.20;99.90;;;;;;5079684;28;20442;-78
2024/01/25 05:03:30;;;;;;;9.00;5.17;;;10.20;99.90;;;;;;5082937;28;20454;-79
2024/01/25 05:06:00;;;;;;;11.90;4.90;;;10.20;99.90;;;;;;5081924;28;20453;-80
2024/01/25 05:08:28;;;;;;;9.03;4.27;;;10.20;99.90;;;;;;5083732;28;20552;-79
2024/01/25 05:10:56;;;;;;;17.73;5.50;;;10.20;99.90;;;;;;5081101;28;20485;-79
2024/01/25 05:13:25;;;;;;;9.33;4.93;;;10.20;99.90;;;;;;5084664;28;20497;-78
2024/01/25 05:15:53;;;;;;;14.70;6.10;;;10.10;99.90;;;;;;5082438;28;20458;-78
2024/01/25 05:18:21;;;;;;;15.10;5.00;;;10.10;99.90;;;;;;5079367;28;20454;-83
2024/01/25 05:20:49;;;;;;;7.93;4.73;;;10.10;99.90;;;;;;5081503;28;20455;-77
2024/01/25 05:23:19;;;;;;;8.30;4.70;;;10.00;99.90;;;;;;5084618;28;20457;-81
2024/01/25 05:25:47;;;;;;;15.37;4.63;;;10.10;99.90;;;;;;5061892;28;20458;-82
2024/01/25 05:28:15;;;;;;;12.90;4.73;;;10.10;99.90;;;;;;5082959;28;20564;-83
2024/01/25 05:30:43;;;;;;;9.37;4.60;;;10.00;99.90;;;;;;5076364;28;21279;-78
2024/01/25 05:33:12;;;;;;;8.20;5.90;;;10.00;99.90;;;;;;5075297;28;20450;-80
2024/01/25 05:35:40;;;;;;;11.63;4.63;;;10.00;99.90;;;;;;5080146;28;20452;-79
2024/01/25 05:38:08;;;;;;;10.63;5.00;;;10.00;99.90;;;;;;5055620;28;20473;-78
2024/01/25 05:40:40;;;;;;;9.10;5.57;;;9.90;99.90;;;;;;5079362;28;20550;-82
2024/01/25 05:43:08;;;;;;;13.90;5.10;;;9.90;99.90;;;;;;5080808;28;20451;-78
2024/01/25 05:45:36;;;;;;;13.73;5.40;;;9.90;99.90;;;;;;5079712;28;20454;-79
2024/01/25 05:48:05;;;;;;;9.37;4.10;;;9.90;99.90;;;;;;5074753;28;20540;-81
2024/01/25 05:50:34;;;;;;;15.30;5.23;;;9.80;99.90;;;;;;5067498;28;21102;-77
2024/01/25 05:53:02;;;;;;;13.10;5.07;;;9.80;99.90;;;;;;5070419;28;20454;-77
2024/01/25 05:55:30;;;;;;;9.73;5.93;;;9.80;99.90;;;;;;5073411;28;20453;-77
2024/01/25 05:58:00;;;;;;;11.90;6.87;;;9.80;99.90;;;;;;5081891;28;20447;-77
2024/01/25 06:00:29;;;;;;;13.20;5.93;;;9.90;99.90;;;;;;5078111;28;21022;-80
2024/01/25 06:02:57;;;;;;;15.07;5.27;;;9.80;99.90;;;;;;5069377;28;20450;-78
2024/01/25 06:05:26;;;;;;;8.33;5.23;;;9.70;99.90;;;;;;5077513;28;20454;-80
2024/01/25 06:07:54;;;;;;;10.73;5.60;;;9.70;1.00;;;;;;5075943;28;20536;-78
2024/01/25 06:10:23;;;;;;;14.60;5.40;;;9.60;1.00;;;;;;5082845;28;20465;-80
2024/01/25 06:12:51;;;;;;;14.00;5.37;;;9.70;1.00;;;;;;5078510;28;21313;-79
2024/01/25 06:15:21;;;;;;;12.37;5.80;;;9.60;1.00;;;;;;5079689;28;20457;-78
2024/01/25 06:17:49;;;;;;;17.23;8.93;;;9.60;1.00;;;;;;5057496;28;20994;-79
2024/01/25 06:20:18;;;;;;;14.67;7.33;;;9.60;1.00;;;;;;5078444;28;20462;-80
2024/01/25 06:22:46;;;;;;;13.47;4.83;;;9.60;1.00;;;;;;5080565;28;20450;-78
2024/01/25 06:25:14;;;;;;;9.23;5.27;;;9.60;1.00;;;;;;5084228;28;20454;-80
2024/01/25 06:27:43;;;;;;;17.77;5.87;;;9.50;1.00;;;;;;5076439;28;20461;-79
2024/01/25 06:30:13;;;;;;;10.43;4.77;;;9.50;1.00;;;;;;5075657;28;21354;-79
2024/01/25 06:32:43;;;;;;;12.27;5.87;;;9.50;1.00;;;;;;5086536;28;20555;-79
2024/01/25 06:35:11;;;;;;;12.43;5.70;;;9.50;1.00;;;;;;5058839;28;20472;-80
2024/01/25 06:37:40;;;;;;;12.30;5.80;;;9.50;1.00;;;;;;5081239;28;21034;-81
2024/01/25 06:40:09;;;;;;;9.73;5.13;;;9.40;1.00;;;;;;5085739;28;20472;-79
2024/01/25 06:42:37;;;;;;;15.23;6.07;;;9.50;1.00;;;;;;5082315;28;20500;-80
2024/01/25 06:45:06;;;;;;;11.47;5.20;;;9.40;1.00;;;;;;5075393;28;20545;-81
2024/01/25 06:47:34;;;;;;;12.23;4.73;;;9.40;1.00;;;;;;5076886;28;20449;-78
2024/01/25 06:50:05;;;;;;;16.27;7.20;;;9.40;1.00;;;;;;5083140;28;20480;-78
2024/01/25 06:52:34;;;;;;;11.07;5.43;;;9.40;1.00;;;;;;5077678;28;20476;-81
2024/01/25 06:55:03;;;;;;;12.10;5.40;;;9.40;1.00;;;;;;5081099;28;20450;-80
2024/01/25 06:57:31;;;;;;;13.97;5.20;;;9.40;1.00;;;;;;5080344;28;21069;-78
2024/01/25 06:59:59;;;;;;;10.20;5.17;;;9.30;1.00;;;;;;5082737;28;21026;-79
2024/01/25 07:02:28;;;;;;;11.60;5.23;;;9.30;1.00;;;;;;5085356;28;20529;-81
2024/01/25 07:04:57;;;;;;;8.70;5.07;;;9.30;1.00;;;;;;5085613;28;20456;-78
2024/01/25 07:07:27;;;;;;;15.10;5.20;;;9.30;1.00;;;;;;5087493;28;20457;-78
2024/01/25 07:09:55;;;;;;;8.73;6.03;;;9.30;1.00;;;;;;5085431;28;20477;-80
2024/01/25 07:12:23;;;;;;;14.00;5.70;;;9.30;1.00;;;;;;5084133;28;20460;-79
2024/01/25 07:14:51;;;;;;;10.63;4.57;;;9.30;1.00;;;;;;5087399;28;20454;-78
2024/01/25 07:17:20;;;;;;;15.33;5.90;;;9.30;1.00;;;;;;5081146;28;20964;-77
2024/01/25 07:19:48;;;;;;;9.10;5.90;;;9.30;1.00;;;;;;5082667;28;20469;-79
2024/01/25 07:22:18;;;;;;;9.43;4.50;;;9.20;1.00;;;;;;5076913;28;20973;-80
2024/01/25 07:24:48;;;;;;;10.97;4.63;;;9.20;1.00;;;;;;5078379;28;21018;-77
2024/01/25 07:27:17;;;;;;;10.93;4.53;;;9.30;1.00;;;;;;5084893;28;20453;-79
2024/01/25 07:29:45;;;;;;;14.30;5.27;;;9.20;1.00;;;;;;5079469;28;20512;-78
2024/01/25 07:32:14;;;;;;;12.60;5.23;;;9.20;1.00;;;;;;5081650;28;20477;-79
2024/01/25 07:34:42;;;;;;;5.33;4.77;;;9.10;1.00;;;;;;5082840;28;20470;-78
2024/01/25 07:37:11;;;;;;;9.17;4.83;;;9.10;1.00;;;;;;5088606;28;20457;-80
2024/01/25 07:39:40;;;;;;;8.33;5.03;;;9.10;1.00;;;;;;5080165;28;20498;-78
2024/01/25 07:42:10;;;;;;;11.70;4.37;;;9.10;1.00;;;;;;5076835;28;20442;-78
2024/01/25 07:44:38;;;;;;;10.97;5.43;;;9.10;1.00;;;;;;5081280;28;20558;-80
2024/01/25 07:47:07;;;;;;;5.47;4.40;;;9.10;1.00;;;;;;5079903;28;20462;-79
2024/01/25 07:49:35;;;;;;;6.63;4.43;;;9.10;1.00;;;;;;5083442;28;20474;-77
2024/01/25 07:52:04;;;;;;;8.20;4.50;;;9.10;1.00;;;;;;5078412;28;20474;-78
2024/01/25 07:54:33;;;;;;;7.00;4.97;;;9.20;1.00;;;;;;5081412;28;22293;-77
2024/01/25 07:57:01;;;;;;;7.13;4.80;;;9.30;1.00;;;;;;5082746;28;20476;-77
2024/01/25 07:59:31;;;;;;;11.87;4.37;;;9.40;1.00;;;;;;5078121;28;20470;-80
2024/01/25 08:01:59;;;;;;;10.23;4.50;;;9.40;1.00;;;;;;5078388;28;20446;-78
2024/01/25 08:04:27;;;;;;;7.33;4.83;;;9.40;1.00;;;;;;5081825;28;20932;-78
2024/01/25 08:06:56;;;;;;;18.63;5.23;;;9.60;1.00;;;;;;5081028;28;20469;-82
2024/01/25 08:09:25;;;;;;;9.40;5.27;;;9.70;1.00;;;;;;5075035;28;20582;-80
2024/01/25 08:11:53;;;;;;;9.33;5.50;;;9.90;1.00;;;;;;5078888;28;20817;-80
2024/01/25 08:14:21;;;;;;;13.20;5.70;;;10.00;99.90;;;;;;5085617;28;20450;-80
2024/01/25 08:16:52;;;;;;;11.73;4.90;;;10.10;99.90;;;;;;5078701;28;20451;-79
2024/01/25 08:19:21;;;;;;;8.93;4.60;;;10.20;99.90;;;;;;5078479;28;20469;-79
2024/01/25 08:21:50;;;;;;;6.77;5.27;;;10.40;99.90;;;;;;5087051;28;20451;-79
2024/01/25 08:24:19;;;;;;;6.10;4.67;;;10.50;99.90;;;;;;5081323;28;20545;-80
2024/01/25 08:26:48;;;;;;;7.83;5.50;;;10.60;99.90;;;;;;5083319;28;21275;-81
2024/01/25 08:29:16;;;;;;;10.07;5.43;;;10.70;99.90;;;;;;5080732;28;20474;-80
2024/01/25 08:31:46;;;;;;;5.77;4.80;;;10.80;99.90;;;;;;5066799;28;20470;-80
2024/01/25 08:34:16;;;;;;;9.33;5.37;;;10.80;99.90;;;;;;5085044;28;20948;-82
2024/01/25 08:36:45;;;;;;;8.33;4.50;;;10.90;99.90;;;;;;5087661;28;20450;-80
2024/01/25 08:39:14;;;;;;;5.73;3.97;;;10.90;99.90;;;;;;5087569;28;20473;-81
2024/01/25 08:41:45;;;;;;;4.40;4.00;;;11.00;99.90;;;;;;5083436;28;21128;-80
2024/01/25 08:44:14;;;;;;;4.27;3.93;;;11.00;99.90;;;;;;5082129;28;21368;-81
2024/01/25 08:46:43;;;;;;;9.50;4.57;;;11.00;99.90;;;;;;5076774;28;20589;-79
2024/01/25 08:49:12;;;;;;;12.90;5.37;;;11.10;99.90;;;;;;5083971;28;20470;-80
2024/01/25 08:51:42;;;;;;;3.93;3.50;;;11.30;99.90;;;;;;5087223;28;20490;-80
2024/01/25 08:54:11;;;;;;;8.97;4.00;;;11.40;99.90;;;;;;5088842;28;20430;-80
2024/01/25 08:56:40;;;;;;;14.10;4.40;;;11.60;99.90;;;;;;5088153;28;20446;-79
2024/01/25 08:59:08;;;;;;;7.50;3.80;;;11.70;99.90;;;;;;5088449;28;20557;-79
2024/01/25 09:01:37;;;;;;;14.97;5.70;;;11.90;99.90;;;;;;5086645;28;20482;-80
2024/01/25 09:04:07;;;;;;;5.27;3.77;;;12.00;99.90;;;;;;5069201;28;21010;-82
2024/01/25 09:06:36;;;;;;;14.10;5.87;;;12.20;99.90;;;;;;5086470;28;20451;-79
2024/01/25 09:09:07;;;;;;;7.10;4.85;;;12.10;99.90;;;;;;5085028;28;20429;-80
2024/01/25 09:11:35;;;;;;;10.93;5.50;;;12.20;99.90;;;;;;5085100;28;20218;-80
2024/01/25 09:14:04;;;;;;;8.40;5.40;;;12.10;99.90;;;;;;5084874;28;21310;-80
2024/01/25 09:16:33;;;;;;;8.20;4.40;;;12.10;99.90;;;;;;5084326;28;20445;-83
2024/01/25 09:19:01;;;;;;;7.50;4.50;;;12.10;99.90;;;;;;5080373;28;21035;-81
2024/01/25 09:21:30;;;;;;;12.17;5.00;;;12.20;99.90;;;;;;5086053;28;20457;-79
2024/01/25 09:24:00;;;;;;;8.60;4.10;;;12.20;99.90;;;;;;5084363;28;20559;-79
2024/01/25 09:26:30;;;;;;;5.70;4.30;;;12.10;99.90;;;;;;5081660;28;20433;-80
2024/01/25 09:28:59;;;;;;;8.00;4.80;;;12.20;99.90;;;;;;5078828;28;20484;-79
2024/01/25 09:31:28;;;;;;;6.27;5.70;;;12.20;99.90;;;;;;5077741;28;20978;-80
2024/01/25 09:33:57;;;;;;;13.17;4.63;;;12.20;99.90;;;;;;5078429;28;20535;-79
2024/01/25 09:36:26;;;;;;;9.70;5.20;;;12.20;99.90;;;;;;5081192;28;20462;-81
2024/01/25 09:38:55;;;;;;;5.70;4.47;;;12.20;99.90;;;;;;5083003;28;20556;-80
2024/01/25 09:41:24;;;;;;;7.37;5.33;;;12.10;99.90;;;;;;5081087;28;20454;-80
2024/01/25 09:43:55;;;;;;;9.40;4.13;;;12.10;99.90;;;;;;5083408;28;20442;-78
2024/01/25 09:46:25;;;;;;;8.07;4.60;;;12.00;99.90;;;;;;5083618;28;20458;-78
2024/01/25 09:48:54;;;;;;;7.07;4.80;;;12.00;99.90;;;;;;5079146;28;20566;-82
2024/01/25 09:51:24;;;;;;;13.10;4.37;;;11.90;99.90;;;;;;5081781;28;20449;-79
2024/01/25 09:53:55;;;;;;;10.93;4.40;;;11.80;99.90;;;;;;5085993;28;20466;-80
2024/01/25 09:56:24;;;;;;;7.37;4.60;;;11.70;99.90;;;;;;5086063;28;20438;-80
2024/01/25 09:58:55;;;;;;;9.73;4.50;;;11.70;99.90;;;;;;5079473;28;20486;-78
2024/01/25 10:01:24;;;;;;;7.67;4.47;;;11.80;99.90;;;;;;5085118;28;20488;-80
2024/01/25 10:03:56;;;;;;;6.37;5.00;;;11.90;99.90;;;;;;5084198;28;20459;-82
2024/01/25 10:06:25;;;;;;;6.37;3.77;;;12.10;99.90;;;;;;5084738;28;20545;-83
2024/01/25 10:08:54;;;;;;;8.90;4.00;;;12.80;99.90;;;;;;5084414;28;20470;-79
2024/01/25 10:11:24;;;;;;;9.43;4.40;;;12.90;99.90;;;;;;5086752;28;20462;-79
2024/01/25 10:13:56;;;;;;;11.43;4.43;;;13.00;99.90;;;;;;5068457;28;20994;-82
2024/01/25 10:16:25;;;;;;;8.53;4.50;;;13.20;99.90;;;;;;5085283;28;20454;-80
2024/01/25 10:18:54;;;;;;;8.93;3.77;;;13.00;99.90;;;;;;5065593;28;20855;-77
2024/01/25 10:21:23;;;;;;;9.17;3.97;;;12.90;99.90;;;;;;5085401;28;20558;-80
2024/01/25 10:23:54;;;;;;;9.27;4.20;;;12.70;99.90;;;;;;5087163;28;20450;-78
2024/01/25 10:26:23;;;;;;;5.37;3.27;;;13.10;99.90;;;;;;5082642;28;21034;-81
2024/01/25 10:28:54;;;;;;;6.43;3.20;;;14.40;99.90;;;;;;5080100;28;21073;-78
2024/01/25 10:31:30;;;;;;;8.20;3.57;;;16.20;99.90;;;;;;5080161;28;20462;-80
2024/01/25 10:34:00;;;;;;;5.27;2.87;;;16.50;99.90;;;;;;5082711;28;20575;-80
2024/01/25 10:36:30;;;;;;;7.60;4.10;;;17.80;99.90;;;;;;5080977;28;20537;-82
2024/01/25 10:39:00;;;;;;;4.80;3.10;;;19.10;99.90;;;;;;5083002;28;20474;-80
2024/01/25 10:41:31;;;;;;;9.73;3.73;;;19.50;99.90;;;;;;5082542;28;21009;-79
2024/01/25 10:44:03;;;;;;;9.43;4.20;;;17.70;99.90;;;;;;5083943;28;20440;-81
2024/01/25 10:46:33;;;;;;;9.60;3.30;;;18.10;99.90;;;;;;5086907;28;20192;-83
2024/01/25 10:49:03;;;;;;;8.60;3.30;;;17.00;99.90;;;;;;5086632;28;20474;-79
2024/01/25 10:51:32;;;;;;;6.67;3.80;;;16.30;99.90;;;;;;5088242;28;20450;-79
2024/01/25 10:54:02;;;;;;;6.83;2.90;;;15.70;99.90;;;;;;5089112;28;20470;-79
2024/01/25 10:56:32;;;;;;;8.10;3.17;;;15.70;99.90;;;;;;5089238;28;20450;-79
2024/01/25 10:59:02;;;;;;;9.57;3.40;;;16.30;99.90;;;;;;5087634;28;20470;-82
2024/01/25 11:01:30;;;;;;;6.23;3.10;;;19.20;99.90;;;;;;5090764;28;20954;-80
2024/01/25 11:03:59;;;;;;;8.00;3.40;;;19.60;99.90;;;;;;5089622;28;20454;-79
2024/01/25 11:06:28;;;;;;;8.27;2.77;;;18.10;99.90;;;;;;5089938;28;20526;-80
2024/01/25 11:09:06;;;;;;;7.70;3.40;;;16.90;99.90;;;;;;5088591;28;20484;-82
2024/01/25 11:11:37;;;;;;;5.97;2.90;;;16.80;99.90;;;;;;5088943;28;20950;-79
2024/01/25 11:14:13;;;;;;;6.20;2.93;;;16.40;99.90;;;;;;5084226;28;20571;-80
2024/01/25 11:16:44;;;;;;;6.73;2.80;;;16.50;99.90;;;;;;5090304;28;20465;-78
2024/01/25 11:19:18;;;;;;;4.27;2.83;;;16.50;99.90;;;;;;5088585;28;20462;-79
2024/01/25 11:21:47;;;;;;;5.00;3.40;;;16.70;99.90;;;;;;5091912;28;20575;-79
2024/01/25 11:24:18;;;;;;;4.83;2.77;;;16.70;99.90;;;;;;5084208;28;20559;-82
2024/01/25 11:26:46;;;;;;;5.77;3.20;;;16.60;99.90;;;;;;5082588;28;20450;-78
2024/01/25 11:29:16;;;;;;;7.53;2.70;;;16.60;99.90;;;;;;5085600;28;20482;-80
2024/01/25 11:31:45;;;;;;;5.27;3.20;;;16.50;99.90;;;;;;5088353;28;20458;-80
2024/01/25 11:34:15;;;;;;;5.33;2.73;;;16.50;99.90;;;;;;5078673;28;20466;-80
2024/01/25 11:36:44;;;;;;;3.50;2.93;;;17.30;99.90;;;;;;5087505;28;21191;-78
2024/01/25 11:39:12;;;;;;;6.80;2.97;;;18.10;99.90;;;;;;5085334;28;20513;-79
2024/01/25 11:41:41;;;;;;;5.37;2.83;;;18.00;99.90;;;;;;5088147;28;20454;-79
2024/01/25 11:44:11;;;;;;;5.57;3.10;;;17.30;99.90;;;;;;5085320;28;20446;-79
2024/01/25 11:46:40;;;;;;;9.30;3.70;;;16.80;99.90;;;;;;5089136;28;20461;-80
2024/01/25 11:49:09;;;;;;;4.83;2.70;;;16.40;99.90;;;;;;5080171;28;20466;-80
2024/01/25 11:51:37;;;;;;;5.33;2.57;;;16.00;99.90;;;;;;5079095;28;20472;-82
2024/01/25 11:54:06;;;;;;;9.60;3.97;;;15.70;99.90;;;;;;5080719;28;20510;-79
2024/01/25 11:56:40;;;;;;;5.07;3.03;;;15.40;99.90;;;;;;5087652;28;20450;-79
2024/01/25 11:59:10;;;;;;;10.60;3.20;;;15.30;99.90;;;;;;5083544;28;20515;-82
2024/01/25 12:01:41;;;;;;;6.27;3.10;;;15.20;99.90;;;;;;5075612;28;20528;-81
2024/01/25 12:04:10;;;;;;;6.03;3.20;;;15.30;99.90;;;;;;5079666;28;20551;-81
2024/01/25 12:06:39;;;;;;;9.60;3.27;;;15.30;99.90;;;;;;5077080;28;20822;-78
2024/01/25 12:09:10;;;;;;;3.40;3.10;;;15.10;99.90;;;;;;5075821;28;20486;-81
2024/01/25 12:11:39;;;;;;;3.73;2.50;;;15.00;99.90;;;;;;5078067;28;20450;-78
2024/01/25 12:14:08;;;;;;;7.70;3.30;;;14.70;99.90;;;;;;5078925;28;20478;-78
2024/01/25 12:16:37;;;;;;;5.23;3.33;;;14.60;99.90;;;;;;5077724;28;20457;-79
2024/01/25 12:19:08;;;;;;;6.63;3.43;;;14.60;99.90;;;;;;5077137;28;20492;-79
2024/01/25 12:21:37;;;;;;;6.97;3.00;;;14.60;99.90;;;;;;5083351;28;20823;-79
2024/01/25 12:24:08;;;;;;;3.70;3.03;;;14.70;99.90;;;;;;5087651;28;21024;-80
2024/01/25 12:26:37;;;;;;;5.40;3.17;;;14.80;99.90;;;;;;5079799;28;20488;-83
2024/01/25 12:29:05;;;;;;;4.40;2.40;;;14.60;99.90;;;;;;5075571;28;20891;-80
2024/01/25 12:31:34;;;;;;;6.57;3.40;;;14.50;99.90;;;;;;5080883;28;20470;-79
2024/01/25 12:34:02;;;;;;;5.80;2.70;;;14.70;99.90;;;;;;5089464;28;20465;-80
2024/01/25 12:36:33;;;;;;;5.37;3.10;;;14.80;99.90;;;;;;5086756;28;21084;-80
2024/01/25 12:39:02;;;;;;;5.40;2.90;;;14.90;99.90;;;;;;5090347;28;20978;-80
2024/01/25 12:41:31;;;;;;;8.50;2.90;;;14.90;99.90;;;;;;5085772;28;20513;-80
2024/01/25 12:44:00;;;;;;;6.73;3.47;;;14.80;99.90;;;;;;5090938;28;20954;-80
2024/01/25 12:46:29;;;;;;;4.77;3.30;;;14.80;99.90;;;;;;5089510;28;20466;-80
2024/01/25 12:48:58;;;;;;;7.13;3.07;;;14.80;99.90;;;;;;5085649;28;20520;-81
2024/01/25 12:51:27;;;;;;;6.03;2.70;;;14.80;99.90;;;;;;5084589;28;21140;-79
2024/01/25 12:53:57;;;;;;;6.63;2.90;;;14.90;99.90;;;;;;5086364;28;20485;-80
2024/01/25 12:56:25;;;;;;;5.33;2.67;;;15.00;99.90;;;;;;5084761;28;20492;-85
2024/01/25 12:58:53;;;;;;;5.50;2.57;;;14.90;99.90;;;;;;5086897;28;20478;-82